Latest Coastal Weather Observations for Laverton

IDV60701

Issued at 1:51 pm EDT Saturday 10 December 2016 (issued every 10 minutes, with the page automatically refreshed every 10 minutes)

About coastal observations | Map of coastal stations | Coastal observations for VIC | Marine services | Other Formats
Station Details ID: 087031 Name: LAVERTON RAAF Lat: -37.86 Lon: 144.76 Height: 20.1 m
Data from the previous 72 hours. | See also: Recent months at Laverton
Date/Time
EDT
Temp
°C
Wind Pressure Rain since
9am
mm
Weather Cloud Vis
km
Sea
Height
m
Swell
Dir  Spd
kts
Gust
kts
hPa Trend Height
m
Period
s
Dir
10/01:30pm 17.4 SSW 10 16 1023.6 - 0.0 - Partly cloudy 10 - - - -
10/01:00pm 17.7 S 9 13 1023.7 - 0.0 - Partly cloudy 10 - - - -
10/12:30pm 17.5 S 6 11 1023.9 - 0.0 - Partly cloudy 10 - - - -
10/12:00pm 16.9 S 5 9 1024.0 - 0.0 - Partly cloudy 10 - - - -
10/11:30am 16.3 SSE 6 11 1023.9 - 0.0 - Partly cloudy 10 - - - -
10/11:00am 15.4 SSE 6 9 1024.1 - 0.0 - Cloudy 10 - - - -
10/10:30am 14.9 SSW 7 10 1024.3 - 0.0 - Cloudy 10 - - - -
10/10:00am 14.4 W 4 9 1024.3 - 0.0 - Cloudy 10 - - - -
10/09:30am 14.0 SSW 5 8 1024.2 - 0.0 - Cloudy 10 - - - -
10/09:00am 13.9 SW 4 8 1024.1 - 0.0 - Cloudy 10 - - - -
10/08:30am 13.4 W 6 9 1023.9 - 0.0 - Cloudy 10 - - - -
10/08:00am 13.0 WSW 8 11 1023.8 - 0.0 - Cloudy 10 - - - -
10/07:30am 12.6 WSW 9 12 1023.5 - 0.0 - Cloudy 10 - - - -
10/07:00am 12.2 W 8 10 1023.0 - 0.0 - Cloudy 10 - - - -
10/06:30am 12.0 W 8 10 1022.7 - 0.0 - Cloudy 10 - - - -
10/06:00am 12.0 WSW 7 10 1022.2 - 0.0 - Cloudy 10 - - - -
10/05:30am 11.9 WSW 7 11 1022.0 - 0.0 - Cloudy 10 - - - -
10/05:00am 11.9 WSW 7 9 1021.9 - 0.0 - Cloudy 10 - - - -
10/04:30am 12.1 WSW 5 8 1022.0 - 0.0 - Cloudy 10 - - - -
10/04:00am 12.1 WSW 7 9 1021.8 - 0.0 - Cloudy 10 - - - -
10/03:30am 12.0 WSW 6 9 1021.7 - 0.0 - Partly cloudy 10 - - - -
10/03:00am 12.2 SW 7 10 1021.8 - 0.0 - Cloudy 10 - - - -
10/02:30am 12.2 SW 9 11 1021.8 - 0.0 - Partly cloudy 10 - - - -
10/02:00am 12.5 WSW 7 11 1022.0 - 0.0 - Partly cloudy 10 - - - -
10/01:30am 12.4 SW 7 9 1022.2 - 0.0 - Cloudy 10 - - - -
10/01:00am 12.6 WSW 6 8 1022.3 - 0.0 - Cloudy 10 - - - -
10/12:30am 12.8 WSW 6 8 1022.5 - 0.0 - Cloudy 10 - - - -
10/12:00am 12.9 WSW 7 11 1022.6 - 0.0 - Cloudy 10 - - - -
 
Date/Time
EDT
Temp
°C
Wind Pressure Rain since
9am
mm
Weather Cloud Vis
km
Sea
Height
m
Swell
Dir  Spd
kts
Gust
kts
hPa Trend Height
m
Period
s
Dir
09/11:30pm 13.1 SW 9 11 1022.7 - 0.0 - Partly cloudy 10 - - - -
09/11:00pm 13.1 SW 9 13 1022.6 - 0.0 - Partly cloudy 10 - - - -
09/10:30pm 13.1 SSW 10 14 1022.5 - 0.0 - Partly cloudy 10 - - - -
09/10:00pm 13.4 SSW 10 14 1022.2 - 0.0 - Partly cloudy 10 - - - -
09/09:30pm 13.2 SSW 10 13 1021.9 - 0.0 - Cloudy 10 - - - -
09/09:00pm 13.3 SSW 12 16 1021.7 - 0.0 - Cloudy 10 - - - -
09/08:30pm 13.5 S 13 17 1021.4 - 0.0 - Partly cloudy 10 - - - -
09/08:00pm 13.7 S 12 18 1021.1 - 0.0 - Partly cloudy 10 - - - -
09/07:30pm 14.5 S 13 16 1020.8 - 0.0 - Partly cloudy 10 - - - -
09/07:00pm 14.3 SSW 15 21 1020.5 - 0.0 - Partly cloudy 10 - - - -
09/06:30pm 14.9 S 13 17 1019.9 - 0.0 - Cloudy 10 - - - -
09/06:00pm 15.2 SSW 13 18 1019.6 - 0.0 - Cloudy 10 - - - -
09/05:30pm 15.8 S 13 17 1019.3 - 0.0 - Cloudy 10 - - - -
09/05:00pm 15.5 SSW 13 18 1019.2 - 0.0 - Partly cloudy 10 - - - -
09/04:30pm 17.1 S 12 16 1019.0 - 0.0 - Partly cloudy 10 - - - -
09/04:00pm 16.8 S 13 21 1019.0 - 0.0 - Cloudy 10 - - - -
09/03:30pm 16.5 SSW 13 19 1019.0 - 0.0 - Partly cloudy 10 - - - -
09/03:00pm 16.3 SSW 14 20 1018.8 - 0.0 - Cloudy 10 - - - -
09/02:30pm 17.0 SSW 13 18 1018.7 - 0.0 - Cloudy 10 - - - -
09/02:00pm 16.3 SSW 13 19 1018.5 - 0.0 - Partly cloudy 10 - - - -
09/01:30pm 16.3 SSW 12 20 1018.6 - 0.0 - Partly cloudy 10 - - - -
09/01:00pm 16.1 SSW 15 21 1018.7 - 0.0 - Cloudy 10 - - - -
09/12:30pm 15.5 SSW 17 26 1018.4 - 0.0 - Cloudy 10 - - - -
09/12:26pm 15.9 SSW 16 26 1018.4 - 0.0 - Partly cloudy 10 - - - -
09/12:00pm 15.2 SSW 15 21 1018.2 - 0.0 - Cloudy 10 - - - -
09/11:30am 14.1 SSW 15 22 1017.8 - 0.0 - Partly cloudy 10 - - - -
09/11:00am 12.6 SSW 17 23 1017.5 - 0.0 - Partly cloudy 10 - - - -
09/10:30am 13.9 SW 13 19 1016.9 - 0.0 - Partly cloudy 10 - - - -
09/10:00am 11.9 SSW 15 22 1016.9 - 0.0 - Partly cloudy 10 - - - -
09/09:30am 13.5 SW 15 21 1016.2 - 0.0 - Partly cloudy 10 - - - -
09/09:00am 12.2 SW 13 20 1015.9 - 2.6 - Cloudy 10 - - - -
09/08:43am 11.8 SW 17 29 1015.8 - 2.6 - Partly cloudy 10 - - - -
09/08:30am 12.6 SW 14 21 1015.3 - 2.6 - Partly cloudy 10 - - - -
09/08:00am 11.0 WSW 16 26 1014.7 - 2.6 - Partly cloudy 10 - - - -
09/07:51am 11.1 WSW 16 26 1014.6 - 2.6 - Partly cloudy 10 - - - -
09/07:48am 11.3 WSW 15 23 1014.5 - 2.6 - Partly cloudy 10 - - - -
09/07:30am 10.8 W 9 13 1014.2 - 2.6 - Partly cloudy 10 - - - -
09/07:00am 10.7 WSW 12 16 1013.5 - 2.6 - Partly cloudy 10 - - - -
09/06:30am 9.6 W 10 13 1013.0 - 2.6 - Partly cloudy 10 - - - -
09/06:00am 9.8 W 9 13 1012.4 - 2.6 - Mostly cloudy 10 - - - -
09/05:30am 9.8 WSW 9 13 1011.9 - 2.6 - Partly cloudy 10 - - - -
09/05:00am 9.5 W 8 12 1011.3 - 2.6 - Partly cloudy 10 - - - -
09/04:30am 9.9 WSW 11 16 1011.0 - 2.6 - Partly cloudy 10 - - - -
09/04:00am 10.3 WSW 11 16 1010.5 - 2.6 - Cloudy 10 - - - -
09/03:30am 9.6 W 8 10 1010.0 - 2.6 - - 10 - - - -
09/03:00am 10.3 W 9 11 1009.8 - 2.6 - - 10 - - - -
09/02:30am 10.8 W 11 17 1009.5 - 2.6 - Partly cloudy 10 - - - -
09/02:00am 11.2 W 11 16 1009.5 - 2.6 - Partly cloudy 10 - - - -
09/01:30am 11.9 WSW 13 20 1009.3 - 2.6 - Partly cloudy 10 - - - -
09/01:00am 12.0 W 11 16 1009.1 - 2.6 - Cloudy 10 - - - -
09/12:30am 12.1 W 11 15 1008.9 - 2.6 - Partly cloudy 10 - - - -
09/12:00am 11.8 W 9 13 1008.8 - 2.6 - Mostly clear 10 - - - -
 
Date/Time
EDT
Temp
°C
Wind Pressure Rain since
9am
mm
Weather Cloud Vis
km
Sea
Height
m
Swell
Dir  Spd
kts
Gust
kts
hPa Trend Height
m
Period
s
Dir
08/11:30pm 12.6 WSW 11 19 1008.6 - 2.6 - Partly cloudy 10 - - - -
08/11:00pm 13.0 W 11 16 1008.1 - 2.6 - Partly cloudy 10 - - - -
08/10:30pm 13.1 W 14 18 1007.8 - 2.6 - Partly cloudy 10 - - - -
08/10:00pm 13.2 W 12 17 1007.1 - 2.6 - Partly cloudy 10 - - - -
08/09:30pm 13.1 WSW 17 24 1006.2 - 2.6 - Partly cloudy 10 - - - -
08/09:09pm 13.7 WSW 15 25 1005.6 - 2.6 - Cloudy 10 - - - -
08/09:00pm 13.8 WSW 17 25 1005.4 - 2.6 - Cloudy 10 - - - -
08/08:30pm 14.3 W 17 25 1004.5 - 2.6 - Partly cloudy 10 - - - -
08/08:00pm 14.1 W 17 22 1004.0 - 2.6 - Partly cloudy 10 - - - -
08/07:56pm 14.5 WSW 15 22 1003.9 - 2.6 - Partly cloudy 10 - - - -
08/07:45pm 14.2 WSW 14 23 1003.6 - 2.6 - Partly cloudy 7 - - - -
08/07:30pm 15.7 W 14 20 1003.1 - 2.4 - Partly cloudy 10 - - - -
08/07:07pm 15.9 W 15 25 1002.6 - 2.4 - Partly cloudy 10 - - - -
08/07:00pm 15.8 W 16 23 1002.4 - 2.4 - Partly cloudy 10 - - - -
08/06:33pm 15.0 W 19 27 1001.7 - 2.4 - Partly cloudy 10 - - - -
08/06:30pm 14.8 W 19 27 1001.6 - 2.4 - Partly cloudy 10 - - - -
08/06:14pm 15.3 WSW 21 31 1001.4 - 2.2 - Partly cloudy 7 - - - -
08/06:00pm 18.4 WSW 18 28 1000.7 - 2.0 - Mostly cloudy 10 - - - -
08/05:30pm 19.6 W 21 31 999.8 - 2.0 - Partly cloudy 10 - - - -
08/05:02pm 21.0 W 20 35 998.9 - 2.0 - Partly cloudy 10 - - - -
08/05:00pm 20.9 W 21 29 998.9 - 2.0 - Partly cloudy 10 - - - -
08/04:30pm 21.0 W 29 40 998.5 - 2.0 - Partly cloudy 10 - - - -
08/04:00pm 21.5 W 21 31 998.5 - 2.0 - Partly cloudy 10 - - - -
08/03:30pm 22.3 W 23 38 998.2 - 2.0 - Partly cloudy 10 - - - -
08/03:00pm 22.3 W 22 33 997.9 - 2.0 - Partly cloudy 10 - - - -
08/02:30pm 22.5 W 23 39 997.8 - 2.0 - Partly cloudy 10 - - - -
08/02:00pm 22.7 W 20 32 997.2 - 2.0 - Partly cloudy 10 - - - -
08/01:30pm 21.3 W 25 35 997.3 - 1.8 - Partly cloudy 10 - - - -
08/01:11pm 21.7 WNW 26 42 996.7 - 1.8 - Partly cloudy 10 - - - -
08/01:00pm 21.1 WNW 20 31 997.5 - 1.8 - Partly cloudy 10 - - - -
08/12:30pm 19.7 W 16 26 997.5 - 1.8 - Partly cloudy 10 - - - -
08/12:00pm 17.6 WNW 15 22 997.6 - 1.8 - Cloudy 10 - - - -
08/11:30am 16.9 W 17 27 997.4 - 1.8 - Partly cloudy 10 - - - -
08/11:23am 16.8 W 15 25 997.3 - 1.8 - Partly cloudy 10 - - - -
08/11:09am 15.9 W 13 20 997.4 - 1.8 - Partly cloudy 10 - - - -
08/11:00am 15.4 W 13 20 997.3 - 1.8 - Partly cloudy 8 - - - -
08/10:40am 15.9 W 17 30 997.3 - 1.4 - Partly cloudy 6 - - - -
08/10:36am 17.8 NW 16 30 997.2 - 0.8 - Partly cloudy 10 - - - -
08/10:34am 19.0 NNW 15 30 997.0 - 0.8 - Partly cloudy 10 - - - -
08/10:30am 20.1 NNW 16 25 996.2 - 0.8 - Partly cloudy 10 - - - -
08/10:15am 19.7 N 15 25 996.0 - 0.8 - Partly cloudy 10 - - - -
08/10:00am 19.5 N 13 22 995.9 - 0.8 - Partly cloudy 10 - - - -
08/09:30am 17.3 N 13 19 996.1 - 0.8 - Partly cloudy 10 - - - -
08/09:09am 17.1 N 14 22 995.8 - 0.2 - Partly cloudy 10 - - - -
08/09:00am 17.3 N 14 27 995.9 - 4.4 Rain Cloudy 8 - - - -
08/08:52am 17.3 N 15 27 996.0 - 4.2 - Partly cloudy 4 - - - -
08/08:44am 17.5 NNW 14 23 997.0 - 2.8 - Partly cloudy 7 - - - -
08/08:30am 17.6 N 15 22 996.5 - 2.0 - Partly cloudy 10 - - - -
08/08:08am 17.9 N 15 25 996.9 - 1.0 - Partly cloudy 10 - - - -
08/08:00am 18.1 N 12 20 996.9 - 0.8 - Partly cloudy 10 - - - -
08/07:44am 18.1 N 16 26 996.8 - 0.8 - Partly cloudy 10 - - - -
08/07:30am 18.6 N 16 22 997.2 - 0.6 - Partly cloudy 10 - - - -
08/07:00am 17.9 N 15 23 998.3 - 0.0 - Partly cloudy 10 - - - -
08/06:30am 18.7 NNW 16 24 998.9 - 0.0 - Partly cloudy 10 - - - -
08/06:00am 23.0 N 15 25 999.0 - 0.0 - Cloudy 10 - - - -
08/05:52am 23.1 N 15 25 998.6 - 0.0 - Cloudy 10 - - - -
08/05:30am 23.6 N 15 23 998.6 - 0.0 - Cloudy 10 - - - -
08/05:03am 24.3 N 19 31 998.0 - 0.0 - Partly cloudy 10 - - - -
08/05:00am 24.3 N 18 27 998.0 - 0.0 - Partly cloudy 10 - - - -
08/04:30am 24.5 N 22 34 997.2 - 0.0 - - 10 - - - -
08/04:09am 24.6 N 17 28 997.2 - 0.0 - - 10 - - - -
08/04:00am 24.6 N 18 26 997.4 - 0.0 - - 10 - - - -
08/03:31am 24.2 N 16 27 998.1 - 0.0 - - 10 - - - -
08/03:30am 24.0 NNE 16 25 998.2 - 0.0 - - 10 - - - -
08/03:24am 23.8 N 15 25 998.4 - 0.0 - - 10 - - - -
08/03:00am 23.8 N 14 23 999.2 - 0.0 - Cloudy 10 - - - -
08/02:30am 21.9 NNE 10 13 999.3 - 0.0 - - 10 - - - -
08/02:00am 22.0 NNE 9 13 1000.6 - 0.0 - - 10 - - - -
08/01:30am 21.5 NNE 9 12 1001.5 - 0.0 - - 10 - - - -
08/01:00am 21.5 NNE 10 15 1002.3 - 0.0 - - 10 - - - -
08/12:30am 21.8 NNE 11 14 1003.0 - 0.0 - Partly cloudy 10 - - - -
08/12:00am 22.2 NNE 10 14 1003.6 - 0.0 - Cloudy 10 - - - -
 
Date/Time
EDT
Temp
°C
Wind Pressure Rain since
9am
mm
Weather Cloud Vis
km
Sea
Height
m
Swell
Dir  Spd
kts
Gust
kts
hPa Trend Height
m
Period
s
Dir
07/11:30pm 18.6 NNW 5 7 1004.6 - 0.0 - Cloudy 10 - - - -
07/11:00pm 18.6 NNE 5 6 1004.9 - 0.0 - Partly cloudy 10 - - - -
07/10:30pm 18.2 E 4 5 1005.4 - 0.0 - - 10 - - - -
07/10:00pm 18.4 E 6 7 1005.8 - 0.0 - - 10 - - - -
07/09:30pm 18.9 E 5 7 1006.3 - 0.0 - - 10 - - - -
07/09:00pm 19.6 ESE 5 7 1006.6 - 0.0 - - 10 - - - -
07/08:30pm 20.7 ESE 5 7 1006.9 - 0.0 - - 10 - - - -
07/08:00pm 22.4 SE 4 7 1007.1 - 0.0 - - 10 - - - -
07/07:30pm 23.0 SE 6 10 1007.2 - 0.0 - - 10 - - - -
07/07:00pm 23.3 ESE 9 13 1007.4 - 0.0 - - 10 - - - -
07/06:30pm 23.7 SE 9 11 1007.7 - 0.0 - - 10 - - - -
07/06:00pm 24.3 SSE 9 13 1008.1 - 0.0 - - 10 - - - -
07/05:30pm 25.3 SE 9 12 1008.4 - 0.0 - - 10 - - - -
07/05:00pm 24.3 SE 9 14 1009.1 - 0.0 - - 10 - - - -
07/04:30pm 23.4 SE 11 15 1009.5 - 0.0 - - 10 - - - -
07/04:00pm 23.2 SE 11 16 1010.2 - 0.0 - - 10 - - - -
07/03:30pm 23.2 SE 12 17 1010.6 - 0.0 - - 10 - - - -
07/03:00pm 22.8 SE 11 17 1011.2 - 0.0 - Mostly clear 10 - - - -
07/02:30pm 22.4 SE 11 16 1011.8 - 0.0 - - 10 - - - -
07/02:00pm 22.1 SE 11 16 1012.3 - 0.0 - - 10 - - - -

Other Formats:

Comma delimited format used in spreadsheet applications
http://www.bom.gov.au/fwo/IDV60701/IDV60701.94865.axf

JavaScript Object Notation format (JSON) in row-major order
http://www.bom.gov.au/fwo/IDV60701/IDV60701.94865.json